Strona główna
METAR-TAF:

METAR-TAF

Lotnisko :

Port lotniczy Sliač

Bańska Bystrzyca, Słowacja

Szerokość geograficzna: 48-38-17N, Długość geograficzna: 019-08-03E, wysokość: 318 m

Aktualna obserwacja pogody

Raport powstał 15 minut temu, godzina 01:00 UTC
Wiatr 3 kt z kierunków zmiennych
Temperatura 19°C
Wilgotność 68%
Ciśnienie 1007 hPa
Widzialność 10 km lub więcej
Przerywane chmury na wysokości 2800 ft

METAR: LZSL 180100Z VRB03KT 9999 BKN028 19/13 Q1007

czas: 03:15 (01:15 UTC)

Prognoza

Raport powstał 2 godziny i 15 minut temu, godzina 23:00 UTC
Prognoza ważna od 18 godzina 00 UTC do 18 godzina 09 UTC
Wiatr 4 kt od zachodnio-północny zachód
Widzialność 10 km lub więcej
Rozproszone chmury na wysokości 3000 ft
Przerywane chmury na wysokości 6000 ft
Prawdopodobieństwo 40% :
Przejściowo
od 18 godzina 00 UTC do 18 godzina 09 UTC
Przerywane chmury na wysokości 3000 ft
słaby deszcz

TAF: LZSL 172300Z 1800/1809 30004KT 9999 SCT030 BKN060 PROB40 TEMPO 1800/1809 -RA BKN030

Obserwacja i prognoza pogody dla ponad 4000 lotnisk (raport METAR i TAF).

Dostępne stacje oznaczono żółtymi i czerwonymi punktami na mapie.

Najedź kursorem aby zobaczyć nazwę stacji.

Kliknij aby zobaczyć obserwacje i prognozy pogody.

Aby zmienić mapę: kliknij na zielony przycisk z czarnym krzyżykiem, aby powiększyć; na zielony przycisk z myślnikiem, aby pomniejszyć; na zielone strzałki, aby przejść do map sąsiednich.


METAR-TAF: